createdAt,value
2023-01-20T00:01:24.595Z,-2.85
2023-01-20T00:03:52.863Z,-2.94
2023-01-20T00:06:20.080Z,-2.81
2023-01-20T00:08:51.154Z,-2.64
2023-01-20T00:11:18.625Z,-2.78
2023-01-20T00:13:45.078Z,-2.81
2023-01-20T00:16:12.040Z,-3.04
2023-01-20T00:18:39.860Z,-2.91
2023-01-20T00:21:13.085Z,-2.77
2023-01-20T00:23:40.961Z,-2.69
2023-01-20T00:26:10.805Z,-2.54
2023-01-20T00:28:37.829Z,-2.50
2023-01-20T00:31:22.781Z,-2.63
2023-01-20T00:33:50.981Z,-2.88
2023-01-20T00:36:18.992Z,-3.16
2023-01-20T00:38:45.458Z,-3.25
2023-01-20T00:41:12.707Z,-3.18
2023-01-20T00:43:39.421Z,-3.26
2023-01-20T00:46:06.561Z,-3.37
2023-01-20T00:48:34.112Z,-3.41
2023-01-20T00:51:01.339Z,-3.24
2023-01-20T00:53:28.113Z,-3.08
2023-01-20T00:55:54.620Z,-3.33
2023-01-20T00:58:21.389Z,-3.39
2023-01-20T01:00:49.484Z,-3.49
2023-01-20T01:03:16.507Z,-3.34
2023-01-20T01:05:43.259Z,-3.40
2023-01-20T01:08:09.881Z,-3.57
2023-01-20T01:10:36.416Z,-3.63
2023-01-20T01:13:04.263Z,-3.63
2023-01-20T01:15:31.165Z,-3.66
2023-01-20T01:17:58.799Z,-3.68
2023-01-20T01:20:26.166Z,-3.63
2023-01-20T01:22:52.622Z,-3.44
2023-01-20T01:25:19.727Z,-3.36
2023-01-20T01:27:46.303Z,-3.28
2023-01-20T01:30:13.102Z,-3.55
2023-01-20T01:32:39.889Z,-3.65
2023-01-20T01:35:06.737Z,-3.57
2023-01-20T01:37:33.257Z,-3.50
2023-01-20T01:39:59.723Z,-3.53
2023-01-20T01:42:26.740Z,-3.59
2023-01-20T01:45:20.296Z,-3.59
2023-01-20T01:47:52.923Z,-3.61
2023-01-20T01:50:35.201Z,-3.65
2023-01-20T01:53:01.766Z,-3.67
2023-01-20T01:55:31.334Z,-3.66
2023-01-20T01:57:59.786Z,-3.77
2023-01-20T02:00:26.624Z,-3.93
2023-01-20T02:02:54.676Z,-3.77
2023-01-20T02:05:22.851Z,-3.76
2023-01-20T02:07:50.019Z,-4.02
2023-01-20T02:10:17.431Z,-4.10
2023-01-20T02:12:47.281Z,-4.15
2023-01-20T02:15:14.378Z,-4.14
2023-01-20T02:18:24.830Z,-3.87
2023-01-20T02:21:24.190Z,-3.75
2023-01-20T02:24:22.891Z,-3.73
2023-01-20T02:27:08.571Z,-4.06
2023-01-20T02:30:03.980Z,-4.24
2023-01-20T02:32:49.234Z,-4.30
2023-01-20T02:35:25.647Z,-4.18
2023-01-20T02:38:12.599Z,-4.15
2023-01-20T02:40:46.138Z,-4.08
2023-01-20T02:43:15.651Z,-4.04
2023-01-20T02:45:52.842Z,-3.96
2023-01-20T02:48:53.428Z,-3.66
2023-01-20T02:55:11.860Z,-3.55
2023-01-20T02:57:52.599Z,-3.75
2023-01-20T03:00:42.852Z,-3.87
2023-01-20T03:03:14.090Z,-3.59
2023-01-20T03:05:45.745Z,-3.33
2023-01-20T03:08:13.086Z,-3.45
2023-01-20T03:10:42.221Z,-3.40
2023-01-20T03:13:18.891Z,-3.39
2023-01-20T03:16:00.446Z,-3.38
2023-01-20T03:18:29.464Z,-3.36
2023-01-20T03:20:58.701Z,-3.35
2023-01-20T03:23:28.011Z,-3.30
2023-01-20T03:25:55.298Z,-3.36
2023-01-20T03:28:21.744Z,-3.65
2023-01-20T03:30:48.627Z,-3.66
2023-01-20T03:33:17.482Z,-3.60
2023-01-20T03:35:44.391Z,-3.51
2023-01-20T03:38:11.089Z,-3.47
2023-01-20T03:40:53.746Z,-3.55
2023-01-20T03:43:29.412Z,-3.54
2023-01-20T03:46:02.547Z,-3.58
2023-01-20T03:48:41.906Z,-3.84
2023-01-20T03:51:13.739Z,-3.80
2023-01-20T03:53:51.035Z,-3.76
2023-01-20T03:56:51.216Z,-3.78
2023-01-20T03:59:20.451Z,-3.68
2023-01-20T04:01:47.270Z,-3.61
2023-01-20T04:04:19.268Z,-3.59
2023-01-20T04:06:48.903Z,-3.52
2023-01-20T04:09:24.867Z,-3.60
2023-01-20T04:11:51.601Z,-3.60
2023-01-20T04:14:18.135Z,-3.59
2023-01-20T04:16:52.471Z,-3.56
2023-01-20T04:19:18.862Z,-3.51
2023-01-20T04:22:17.795Z,-3.61
2023-01-20T04:24:52.897Z,-3.61
2023-01-20T04:27:19.352Z,-3.61
2023-01-20T04:29:46.448Z,-3.52
2023-01-20T04:32:12.924Z,-3.61
2023-01-20T04:34:39.556Z,-3.58
2023-01-20T04:37:05.943Z,-3.61
2023-01-20T04:39:32.361Z,-3.58
2023-01-20T04:41:58.747Z,-3.55
2023-01-20T04:44:25.187Z,-3.58
2023-01-20T04:46:56.658Z,-3.61
2023-01-20T04:49:23.063Z,-3.68
2023-01-20T04:51:49.456Z,-3.57
2023-01-20T04:54:15.904Z,-3.38
2023-01-20T04:56:43.248Z,-3.66
2023-01-20T04:59:09.762Z,-3.54
2023-01-20T05:01:36.345Z,-3.64
2023-01-20T05:04:02.838Z,-3.50
2023-01-20T05:06:29.221Z,-3.55
2023-01-20T05:08:55.667Z,-3.44
2023-01-20T05:11:22.160Z,-3.64
2023-01-20T05:13:48.570Z,-3.83
2023-01-20T05:16:15.069Z,-3.73
2023-01-20T05:18:41.506Z,-3.52
2023-01-20T05:21:08.734Z,-3.41
2023-01-20T05:23:35.481Z,-3.54
2023-01-20T05:26:01.918Z,-3.39
2023-01-20T05:28:28.323Z,-3.36
2023-01-20T05:30:55.058Z,-3.52
2023-01-20T05:33:21.531Z,-3.51
2023-01-20T05:35:47.984Z,-3.42
2023-01-20T05:38:14.410Z,-3.37
2023-01-20T05:40:40.817Z,-3.55
2023-01-20T05:43:07.221Z,-3.65
2023-01-20T05:45:33.687Z,-3.59
2023-01-20T05:48:00.583Z,-3.71
2023-01-20T05:50:28.174Z,-3.73
2023-01-20T05:52:54.592Z,-3.57
2023-01-20T05:55:21.628Z,-3.72
2023-01-20T05:57:48.014Z,-3.74
2023-01-20T06:00:14.853Z,-3.83
2023-01-20T06:02:41.826Z,-3.70
2023-01-20T06:05:08.426Z,-3.86
2023-01-20T06:07:34.893Z,-3.60
2023-01-20T06:10:02.422Z,-3.87
2023-01-20T06:12:28.831Z,-3.83
2023-01-20T06:14:55.239Z,-3.85
2023-01-20T06:17:21.716Z,-3.91
2023-01-20T06:19:48.143Z,-3.71
2023-01-20T06:22:15.498Z,-3.51
2023-01-20T06:24:42.023Z,-3.15
2023-01-20T06:27:09.397Z,-3.36
2023-01-20T06:29:36.043Z,-3.45
2023-01-20T06:32:02.587Z,-3.57
2023-01-20T06:34:29.014Z,-3.51
2023-01-20T06:36:56.055Z,-3.50
2023-01-20T06:39:22.657Z,-3.34
2023-01-20T06:41:49.161Z,-3.27
2023-01-20T06:44:16.677Z,-3.20
2023-01-20T06:46:43.161Z,-3.40
2023-01-20T06:49:09.775Z,-3.41
2023-01-20T06:51:36.311Z,-3.67
2023-01-20T06:54:02.750Z,-3.36
2023-01-20T06:56:29.281Z,-3.45
2023-01-20T06:58:55.729Z,-3.28
2023-01-20T07:01:25.247Z,-3.12
2023-01-20T07:03:52.067Z,-3.21
2023-01-20T07:06:31.671Z,-3.50
2023-01-20T07:08:59.625Z,-3.52
2023-01-20T07:11:26.994Z,-3.44
2023-01-20T07:13:53.439Z,-3.17
2023-01-20T07:16:20.212Z,-3.19
2023-01-20T07:18:51.703Z,-3.27
2023-01-20T07:21:19.318Z,-3.06
2023-01-20T07:23:46.278Z,-3.24
2023-01-20T07:26:18.119Z,-3.21
2023-01-20T07:28:44.689Z,-3.41
2023-01-20T07:31:19.723Z,-3.24
2023-01-20T07:33:46.760Z,-3.13
2023-01-20T07:36:14.666Z,-3.09
2023-01-20T07:38:41.313Z,-2.75
2023-01-20T07:41:16.405Z,-2.63
2023-01-20T07:43:44.312Z,-2.65
2023-01-20T07:46:11.316Z,-2.65
2023-01-20T07:48:38.239Z,-2.76
2023-01-20T07:51:07.470Z,-2.75
2023-01-20T07:53:52.153Z,-2.93
2023-01-20T07:56:24.703Z,-3.11
2023-01-20T07:58:51.897Z,-3.14
2023-01-20T08:01:22.830Z,-2.79
2023-01-20T08:03:49.847Z,-2.78
2023-01-20T08:06:19.192Z,-2.85
2023-01-20T08:08:46.061Z,-2.85
2023-01-20T08:11:14.203Z,-2.91
2023-01-20T08:13:41.461Z,-2.59
2023-01-20T08:16:10.673Z,-2.47
2023-01-20T08:18:38.029Z,-2.26
2023-01-20T08:21:08.033Z,-2.34
2023-01-20T08:23:35.743Z,-2.17
2023-01-20T08:26:05.296Z,-1.88
2023-01-20T08:28:36.314Z,-2.01
2023-01-20T08:31:09.900Z,-2.31
2023-01-20T08:33:37.198Z,-2.14
2023-01-20T08:36:16.119Z,-2.36
2023-01-20T08:38:43.718Z,-2.01
2023-01-20T08:41:18.304Z,-2.27
2023-01-20T08:43:45.046Z,-1.92
2023-01-20T08:46:13.819Z,-1.79
2023-01-20T08:48:42.081Z,-1.82
2023-01-20T08:51:14.034Z,-2.14
2023-01-20T08:53:40.682Z,-1.94
2023-01-20T08:56:07.512Z,-1.85
2023-01-20T08:58:34.867Z,-2.11
2023-01-20T09:01:14.050Z,-1.51
2023-01-20T09:03:45.064Z,-1.81
2023-01-20T09:06:16.622Z,-1.45
2023-01-20T09:08:43.402Z,-1.22
2023-01-20T09:11:15.477Z,-1.03
2023-01-20T09:13:42.400Z,-1.11
2023-01-20T09:16:12.098Z,-1.38
2023-01-20T09:18:38.928Z,-1.30
2023-01-20T09:21:08.752Z,-1.36
2023-01-20T09:23:36.799Z,-1.26
2023-01-20T09:26:04.700Z,-1.19
2023-01-20T09:28:31.636Z,-0.94
2023-01-20T09:30:59.344Z,-0.90
2023-01-20T09:33:25.885Z,-0.86
2023-01-20T09:35:56.344Z,-0.46
2023-01-20T09:38:41.463Z,-0.28
2023-01-20T09:41:46.455Z,-0.10
2023-01-20T09:44:43.157Z,0.23
2023-01-20T09:47:21.333Z,0.72
2023-01-20T09:50:34.521Z,0.83
2023-01-20T09:53:15.272Z,1.71
2023-01-20T09:55:56.921Z,2.21
2023-01-20T09:58:32.491Z,1.57
2023-01-20T10:01:12.802Z,1.31
2023-01-20T10:03:56.994Z,1.33
2023-01-20T10:06:31.730Z,1.32
2023-01-20T10:09:06.208Z,1.32
2023-01-20T10:11:41.218Z,0.77
2023-01-20T10:14:19.784Z,0.51
2023-01-20T10:17:25.071Z,0.79
2023-01-20T10:19:58.913Z,1.04
2023-01-20T10:22:40.071Z,0.99
2023-01-20T10:25:13.295Z,0.78
2023-01-20T10:27:49.160Z,0.96
2023-01-20T10:30:16.695Z,1.04
2023-01-20T10:32:54.957Z,0.96
2023-01-20T10:35:25.859Z,1.15
2023-01-20T10:37:53.248Z,1.16
2023-01-20T10:40:35.072Z,1.23
2023-01-20T10:43:10.034Z,1.46
2023-01-20T10:45:56.773Z,1.47
2023-01-20T10:49:03.389Z,0.97
2023-01-20T10:51:45.408Z,1.39
2023-01-20T10:54:29.963Z,1.24
2023-01-20T10:57:00.133Z,1.12
2023-01-20T10:59:41.049Z,0.93
2023-01-20T11:02:30.307Z,0.74
2023-01-20T11:05:00.927Z,0.73
2023-01-20T11:07:29.856Z,0.83
2023-01-20T11:09:56.340Z,0.74
2023-01-20T11:12:27.263Z,0.72
2023-01-20T11:15:00.254Z,0.73
2023-01-20T11:17:26.785Z,0.73
2023-01-20T11:19:56.703Z,0.64
2023-01-20T11:22:30.265Z,0.73
2023-01-20T11:24:59.020Z,0.81
2023-01-20T11:27:29.791Z,0.86
2023-01-20T11:30:03.779Z,1.06
2023-01-20T11:32:35.132Z,0.99
2023-01-20T11:35:18.712Z,0.91
2023-01-20T11:37:45.212Z,1.09
2023-01-20T11:40:19.857Z,0.89
2023-01-20T11:42:48.280Z,1.08
2023-01-20T11:45:32.480Z,1.15
2023-01-20T11:48:08.121Z,1.39
2023-01-20T11:50:57.329Z,1.53
2023-01-20T11:53:26.628Z,1.56
2023-01-20T11:55:59.457Z,1.18
2023-01-20T11:58:29.075Z,1.31
2023-01-20T12:01:05.393Z,1.44
2023-01-20T12:03:50.329Z,1.24
2023-01-20T12:06:35.143Z,1.06
2023-01-20T12:09:15.471Z,1.02
2023-01-20T12:11:59.383Z,0.86
2023-01-20T12:14:34.117Z,1.03
2023-01-20T12:17:16.580Z,1.14
2023-01-20T12:20:06.266Z,1.07
2023-01-20T12:22:47.658Z,1.18
2023-01-20T12:25:22.348Z,1.19
2023-01-20T12:27:56.912Z,1.32
2023-01-20T12:30:41.166Z,1.42
2023-01-20T12:33:23.165Z,1.45
2023-01-20T12:36:19.336Z,1.32
2023-01-20T12:39:02.737Z,1.31
2023-01-20T12:41:56.850Z,1.30
2023-01-20T12:44:38.397Z,1.58
2023-01-20T12:47:21.977Z,1.60
2023-01-20T12:50:23.772Z,1.50
2023-01-20T12:53:16.954Z,1.59
2023-01-20T12:56:10.576Z,1.76
2023-01-20T12:59:20.839Z,1.68
2023-01-20T13:02:20.567Z,1.96
2023-01-20T13:04:54.728Z,2.48
2023-01-20T13:07:33.280Z,2.47
2023-01-20T13:10:39.574Z,2.62
2023-01-20T13:13:55.669Z,2.46
2023-01-20T13:16:43.354Z,2.38
2023-01-20T13:19:24.085Z,2.13
2023-01-20T13:22:06.501Z,2.22
2023-01-20T13:24:34.901Z,2.11
2023-01-20T13:27:01.917Z,1.87
2023-01-20T13:29:34.297Z,1.79
2023-01-20T13:32:00.991Z,1.86
2023-01-20T13:34:33.189Z,1.82
2023-01-20T13:37:02.475Z,1.68
2023-01-20T13:39:40.829Z,1.81
2023-01-20T13:42:38.199Z,2.04
2023-01-20T13:45:14.436Z,1.99
2023-01-20T13:47:54.700Z,1.73
2023-01-20T13:50:28.698Z,1.79
2023-01-20T13:52:57.853Z,1.34
2023-01-20T13:55:49.227Z,1.21
2023-01-20T13:58:24.514Z,1.44
2023-01-20T14:01:06.045Z,1.26
2023-01-20T14:03:39.826Z,1.31
2023-01-20T14:06:13.364Z,1.37
2023-01-20T14:08:45.871Z,1.44
2023-01-20T14:11:15.596Z,1.40
2023-01-20T14:13:52.149Z,1.36
2023-01-20T14:16:25.598Z,1.39
2023-01-20T14:18:54.297Z,1.52
2023-01-20T14:21:24.062Z,1.49
2023-01-20T14:23:51.507Z,1.34
2023-01-20T14:26:31.555Z,1.24
2023-01-20T14:29:00.652Z,1.40
2023-01-20T14:31:43.613Z,1.51
2023-01-20T14:34:28.193Z,1.42
2023-01-20T14:36:59.980Z,1.53
2023-01-20T14:39:30.894Z,1.05
2023-01-20T14:42:01.424Z,1.22
2023-01-20T14:44:32.554Z,1.23
2023-01-20T14:47:01.318Z,1.26
2023-01-20T14:49:33.269Z,1.37
2023-01-20T14:52:01.122Z,1.28
2023-01-20T14:54:29.609Z,1.10
2023-01-20T14:56:58.227Z,1.17
2023-01-20T14:59:25.930Z,0.89
2023-01-20T15:02:01.580Z,0.82
2023-01-20T15:04:36.098Z,0.75
2023-01-20T15:07:03.435Z,0.48
2023-01-20T15:09:33.177Z,0.43
2023-01-20T15:12:30.585Z,0.29
2023-01-20T15:15:21.849Z,-0.13
2023-01-20T15:18:23.327Z,-0.08
2023-01-20T15:20:51.429Z,-0.22
2023-01-20T15:23:38.907Z,-0.50
2023-01-20T15:26:24.401Z,-0.50
2023-01-20T15:28:50.939Z,-0.59
2023-01-20T15:31:17.492Z,-0.63
2023-01-20T15:33:44.530Z,-0.59
2023-01-20T15:36:22.112Z,-0.60
2023-01-20T15:38:49.132Z,-0.66
2023-01-20T15:41:15.554Z,-0.81
2023-01-20T15:43:42.524Z,-0.69
2023-01-20T15:46:14.226Z,-0.95
2023-01-20T15:48:41.335Z,-0.91
2023-01-20T15:51:13.539Z,-0.81
2023-01-20T15:53:40.380Z,-1.04
2023-01-20T15:56:16.156Z,-0.83
2023-01-20T15:58:42.653Z,-0.94
2023-01-20T16:01:13.389Z,-1.07
2023-01-20T16:03:39.830Z,-0.94
2023-01-20T16:06:15.467Z,-1.00
2023-01-20T16:08:46.039Z,-1.26
2023-01-20T16:11:13.773Z,-1.03
2023-01-20T16:13:40.957Z,-1.15
2023-01-20T16:16:14.381Z,-1.07
2023-01-20T16:18:41.447Z,-1.21
2023-01-20T16:21:10.995Z,-1.19
2023-01-20T16:23:37.782Z,-1.23
2023-01-20T16:26:15.926Z,-1.20
2023-01-20T16:28:42.370Z,-1.21
2023-01-20T16:31:12.006Z,-1.17
2023-01-20T16:33:38.586Z,-1.26
2023-01-20T16:36:11.842Z,-1.13
2023-01-20T16:38:40.515Z,-1.22
2023-01-20T16:44:15.735Z,-1.13
2023-01-20T16:46:42.619Z,-1.15
2023-01-20T16:49:09.466Z,-1.16
2023-01-20T16:51:36.266Z,-1.02
2023-01-20T16:54:03.177Z,-1.15
2023-01-20T16:56:32.639Z,-1.09
2023-01-20T16:59:01.840Z,-1.03
2023-01-20T17:01:30.296Z,-0.93
2023-01-20T17:04:02.370Z,-1.01
2023-01-20T17:06:32.088Z,-1.04
2023-01-20T17:09:00.643Z,-1.08
2023-01-20T17:11:32.973Z,-1.16
2023-01-20T17:14:02.128Z,-1.10
2023-01-20T17:16:31.401Z,-1.08
2023-01-20T17:19:02.091Z,-0.83
2023-01-20T17:21:33.471Z,-0.91
2023-01-20T17:24:02.355Z,-0.93
2023-01-20T17:26:29.654Z,-0.90
2023-01-20T17:28:58.632Z,-0.62
2023-01-20T17:31:25.853Z,-0.64
2023-01-20T17:33:56.721Z,-0.67
2023-01-20T17:36:23.385Z,-0.75
2023-01-20T17:38:49.929Z,-0.91
2023-01-20T17:41:16.687Z,-0.92
2023-01-20T17:43:46.358Z,-0.84
2023-01-20T17:46:19.834Z,-0.77
2023-01-20T17:48:47.003Z,-0.84
2023-01-20T17:51:16.127Z,-0.76
2023-01-20T17:53:43.360Z,-0.74
2023-01-20T17:56:13.042Z,-0.93
2023-01-20T17:58:41.403Z,-0.83
2023-01-20T18:01:21.887Z,-0.84
2023-01-20T18:03:50.689Z,-0.83
2023-01-20T18:06:19.702Z,-0.92
2023-01-20T18:08:52.606Z,-0.88
2023-01-20T18:11:20.436Z,-0.82
2023-01-20T18:13:50.106Z,-0.77
2023-01-20T18:16:19.169Z,-0.98
2023-01-20T18:18:47.611Z,-0.92
2023-01-20T18:21:23.025Z,-0.90
2023-01-20T18:23:51.109Z,-0.91
2023-01-20T18:26:22.791Z,-0.90
2023-01-20T18:28:53.187Z,-0.85
2023-01-20T18:31:22.016Z,-0.84
2023-01-20T18:33:54.671Z,-0.79
2023-01-20T18:36:28.189Z,-0.87
2023-01-20T18:39:04.099Z,-0.94
2023-01-20T18:41:32.687Z,-0.93
2023-01-20T18:44:00.761Z,-0.91
2023-01-20T18:46:31.036Z,-0.98
2023-01-20T18:48:58.042Z,-1.00
2023-01-20T18:51:27.406Z,-0.92
2023-01-20T18:53:57.225Z,-0.90
2023-01-20T18:56:25.078Z,-0.91
2023-01-20T18:58:53.723Z,-0.97
2023-01-20T19:01:23.992Z,-0.97
2023-01-20T19:03:52.245Z,-1.09
2023-01-20T19:06:27.978Z,-0.96
2023-01-20T19:08:56.676Z,-0.96
2023-01-20T19:11:29.327Z,-1.17
2023-01-20T19:13:56.177Z,-1.00
2023-01-20T19:16:28.195Z,-1.13
2023-01-20T19:18:57.390Z,-0.98
2023-01-20T19:21:25.601Z,-0.89
2023-01-20T19:23:54.663Z,-0.85
2023-01-20T19:26:22.752Z,-0.89
2023-01-20T19:28:56.575Z,-0.87
2023-01-20T19:31:23.764Z,-0.72
2023-01-20T19:33:50.627Z,-0.97
2023-01-20T19:36:19.196Z,-0.92
2023-01-20T19:38:45.835Z,-0.79
2023-01-20T19:41:14.879Z,-0.89
2023-01-20T19:43:42.385Z,-0.92
2023-01-20T19:46:14.987Z,-0.94
2023-01-20T19:48:42.412Z,-0.90
2023-01-20T19:51:12.400Z,-0.80
2023-01-20T19:53:40.184Z,-0.70
2023-01-20T19:56:12.952Z,-0.81
2023-01-20T19:58:40.277Z,-0.66
2023-01-20T20:01:13.170Z,-0.65
2023-01-20T20:03:40.307Z,-1.03
2023-01-20T20:06:08.481Z,-0.97
2023-01-20T20:08:37.974Z,-0.91
2023-01-20T20:11:04.522Z,-0.88
2023-01-20T20:13:31.018Z,-0.89
2023-01-20T20:16:04.761Z,-0.83
2023-01-20T20:18:32.061Z,-0.86
2023-01-20T20:20:58.941Z,-0.83
2023-01-20T20:23:25.848Z,-0.66
2023-01-20T20:25:56.232Z,-0.76
2023-01-20T20:28:28.125Z,-0.82
2023-01-20T20:30:55.484Z,-0.76
2023-01-20T20:33:25.298Z,-0.94
2023-01-20T20:35:51.836Z,-0.99
2023-01-20T20:38:18.731Z,-0.99
2023-01-20T20:40:45.221Z,-1.12
2023-01-20T20:43:11.789Z,-0.87
2023-01-20T20:45:38.538Z,-1.04
2023-01-20T20:48:05.753Z,-0.93
2023-01-20T20:50:32.404Z,-1.00
2023-01-20T20:52:59.145Z,-0.92
2023-01-20T20:55:26.333Z,-1.02
2023-01-20T20:57:52.967Z,-0.93
2023-01-20T21:00:23.431Z,-1.20
2023-01-20T21:02:50.376Z,-1.12
2023-01-20T21:05:18.863Z,-1.19
2023-01-20T21:07:45.863Z,-1.19
2023-01-20T21:10:14.059Z,-1.08
2023-01-20T21:12:40.983Z,-1.19
2023-01-20T21:15:08.786Z,-1.07
2023-01-20T21:17:35.293Z,-1.16
2023-01-20T21:20:02.098Z,-1.09
2023-01-20T21:22:28.694Z,-1.06
2023-01-20T21:24:55.237Z,-1.12
2023-01-20T21:27:21.879Z,-1.06
2023-01-20T21:29:48.329Z,-1.03
2023-01-20T21:32:15.826Z,-1.15
2023-01-20T21:34:42.389Z,-1.10
2023-01-20T21:37:09.049Z,-1.10
2023-01-20T21:39:35.589Z,-1.10
2023-01-20T21:42:02.130Z,-1.06
2023-01-20T21:44:28.672Z,-1.13
2023-01-20T21:47:10.480Z,-1.10
2023-01-20T21:49:55.712Z,-1.10
2023-01-20T21:52:42.262Z,-1.11
2023-01-20T21:55:11.950Z,-1.12
2023-01-20T21:57:38.883Z,-0.84
2023-01-20T22:00:08.955Z,-0.95
2023-01-20T22:02:39.494Z,-0.82
2023-01-20T22:05:06.881Z,-0.75
2023-01-20T22:07:33.459Z,-0.92
2023-01-20T22:10:00.049Z,-0.96
2023-01-20T22:12:26.693Z,-1.01
2023-01-20T22:14:53.329Z,-1.17
2023-01-20T22:17:19.834Z,-1.00
2023-01-20T22:19:46.380Z,-0.94
2023-01-20T22:22:15.092Z,-0.85
2023-01-20T22:24:42.039Z,-0.92
2023-01-20T22:27:08.725Z,-1.01
2023-01-20T22:29:35.338Z,-1.07
2023-01-20T22:32:04.008Z,-0.88
2023-01-20T22:34:30.687Z,-0.91
2023-01-20T22:36:57.946Z,-0.96
2023-01-20T22:39:24.536Z,-0.92
2023-01-20T22:41:51.131Z,-0.87
2023-01-20T22:44:17.722Z,-0.90
2023-01-20T22:46:44.279Z,-0.88
2023-01-20T22:49:11.465Z,-0.98
2023-01-20T22:51:38.102Z,-0.97
2023-01-20T22:54:04.934Z,-1.07
2023-01-20T22:56:32.184Z,-1.03
2023-01-20T22:58:59.540Z,-1.01
2023-01-20T23:01:32.378Z,-1.11
2023-01-20T23:04:01.564Z,-1.21
2023-01-20T23:06:30.601Z,-1.19
2023-01-20T23:08:57.086Z,-1.08
2023-01-20T23:11:23.902Z,-1.16
2023-01-20T23:13:51.900Z,-1.01
2023-01-20T23:16:22.733Z,-1.08
2023-01-20T23:18:50.997Z,-1.07
2023-01-20T23:21:18.213Z,-1.14
2023-01-20T23:23:45.135Z,-1.14
2023-01-20T23:26:18.887Z,-1.06
2023-01-20T23:28:46.647Z,-1.03
2023-01-20T23:31:17.583Z,-1.00
2023-01-20T23:33:44.733Z,-0.98
2023-01-20T23:36:23.730Z,-1.02
2023-01-20T23:38:52.468Z,-1.06
2023-01-20T23:41:20.008Z,-1.11
2023-01-20T23:43:46.545Z,-0.96
2023-01-20T23:46:13.181Z,-0.92
2023-01-20T23:48:40.088Z,-0.97
2023-01-20T23:51:07.473Z,-0.92
2023-01-20T23:53:38.488Z,-0.88
2023-01-20T23:56:09.876Z,-0.90
2023-01-20T23:58:36.456Z,-0.96
